ADDS METAR Data INFO
IDs: Format: Raw Decoded Include TAF

Data at: 0226 UTC 14 Dec 2017

KARB 140223Z AUTO 02010KT 1 3/4SM -SN BR OVC027 M06/M07 A2938 RMK AO2 P0001 T10561067
KARB 140212Z AUTO 03008KT 2SM -SN BR OVC025 M05/M07 A2938 RMK AO2 P0001 T10501067
KARB 140153Z AUTO 04006KT 1 1/2SM -SN BR SCT016 OVC025 M05/M06 A2938 RMK AO2 SLP961 P0002 T10501061
KARB 140122Z AUTO 05007KT 1 1/4SM -SN BR OVC016 M06/M07 A2937 RMK AO2 P0001 T10561067
KARB 140053Z AUTO 07007KT 1SM -SN BR VV013 M06/M07 A2937 RMK AO2 SLP959 P0001 T10561067
KARB 140001Z 08008KT 1SM -SN BR VV011 M06/M07 A2939 RMK AO2 P0000 T10611072
KARB 132353Z 09008KT 3/4SM -SN BR VV009 M06/M07 A2939 RMK AO2 SLP965 P0002 60006 T10611072 11061 21078 58016
KARB 132302Z 09009KT 3/4SM -SN BR VV009 M06/M07 A2942 RMK AO2 P0000 T10611072
KARB 132253Z 09008KT 3/4SM -SN BR VV010 M06/M07 A2942 RMK AO2 SLP976 P0002 T10611072
KARB 132246Z 10007KT 1SM -SN BR VV011 M06/M07 A2943 RMK AO2 P0002 T10611072
KARB 132153Z 09008KT 1/2SM SN FZFG VV011 M06/M08 A2944 RMK AO2 SLP983 P0002 T10611078
KARB 132140Z 09008KT 1/2SM SN FZFG VV014 M06/M08 A2944 RMK AO2 P0002 T10611078
KARB 132116Z 11008KT 1 1/4SM -SN BR FEW010 OVC022 M07/M08 A2944 RMK AO2 P0001 T10671083
KARB 132053Z 11008KT 1/2SM SN FZFG VV016 M07/M08 A2944 RMK AO2 SNB16 SLP983 P0000 60000 T10671083 56029
KARB 132048Z 11008KT 3/4SM -SN BR SCT013 OVC021 M07/M08 A2944 RMK AO2 SNB16 P0000
KARB 132043Z 10008KT 1 1/4SM -SN BR BKN013 OVC023 M07/M08 A2943 RMK AO2 SNB16 P0000 T10671083
KARB 132023Z 10009KT 2 1/2SM -SN BR BKN012 OVC034 M07/M09 A2945 RMK AO2 SNB16 P0000 T10671089
KARB 132016Z 09010KT 7SM -SN SCT011 OVC035 M07/M09 A2945 RMK AO2 SNB16 P0000 T10671089
KARB 132009Z 09010KT 10SM SCT012 BKN026 OVC037 M07/M09 A2945 RMK AO2 T10671089
KARB 131953Z 11011KT 10SM BKN012 OVC037 M07/M09 A2947 RMK AO2 SNE08 PRESFR SLP994 P0000 T10671094
KARB 131903Z 10008KT 4SM -SN BR FEW019 OVC043 M07/M09 A2952 RMK AO2 P0000 T10721094
KARB 131853Z 10008KT 2SM -SN BR SCT024 BKN043 OVC070 M08/M09 A2953 RMK AO2 SLP013 P0000 T10781094
KARB 131850Z 11009KT 1 1/2SM -SN BR SCT024 BKN043 OVC070 M08/M10 A2953 RMK AO2 PRESFR P0000
KARB 131841Z 11010KT 1 1/4SM -SN BR BKN022 BKN037 OVC060 M08/M10 A2954 RMK AO2 P0000 T10781100
KARB 131833Z 12008KT 2 1/2SM -SN BR BKN028 BKN039 OVC060 M08/M10 A2955 RMK AO2 P0000 T10781100
KARB 131827Z 12012KT 1 3/4SM -SN BR BKN030 BKN039 OVC060 M08/M10 A2955 RMK AO2 P0000 T10781100
KARB 131820Z 11008G15KT 1 1/4SM -SN BR BKN023 OVC039 M08/M10 A2956 RMK AO2 PRESFR P0000 T10781100
KARB 131815Z 11008KT 2SM -SN BR BKN026 OVC039 M08/M10 A2957 RMK AO2 PRESFR P0000 T10781100
KARB 131753Z 11008KT 6SM -SN BR FEW023 FEW032 OVC040 M08/M10 A2959 RMK AO2 PRESFR SLP036 P0002 60005 T10781100 11078 21089 58043
KARB 131745Z 11012KT 3SM -SN BR SCT015 SCT032 OVC040 M08/M10 A2961 RMK AO2 PRESFR P0002 T10781100
KARB 131740Z 11008KT 1 3/4SM -SN BR SCT015 BKN032 OVC040 M08/M10 A2961 RMK AO2 P0002 T10781100
KARB 131730Z 12009KT 1SM -SN BR BKN015 OVC032 M08/M10 A2963 RMK AO2 PRESFR P0002 T10831100
KARB 131704Z 16009KT 1/2SM SN FZFG VV012 M08/M10 A2967 RMK AO2 P0001 T10831100
KARB 131653Z 15007KT 3/4SM -SN BR VV015 M08/M10 A2967 RMK AO2 SLP062 P0001 T10831100
KARB 131649Z 15009KT 1/2SM SN FZFG VV015 M08/M10 A2968 RMK AO2 P0001
KARB 131641Z 15008KT 1SM -SN BR VV016 M08/M11 A2968 RMK AO2 P0001 T10831106
KARB 131632Z 17009KT 3/4SM -SN BR VV017 M08/M11 A2969 RMK AO2 P0001 T10831106
KARB 131617Z 17008KT 3/4SM -SN BR VV013 M08/M10 A2970 RMK AO2 P0001 T10831100
KARB 131608Z 16009KT 3/4SM -SN BR VV015 M08/M10 A2971 RMK AO2 P0001 T10831100
KARB 131601Z 18011KT 1/2SM SN FZFG VV014 M08/M11 A2972 RMK AO2 P0000 T10831106
KARB 131553Z 16009KT 1/2SM -SN FZFG VV015 M08/M10 A2973 RMK AO2 SLP080 P0001 T10831100
KARB 131529Z 16008KT 3/4SM -SN BR VV016 M08/M11 A2975 RMK AO2 P0001 T10831106
KARB 131508Z 16008KT 3/4SM -SN BR VV013 M08/M10 A2974 RMK AO2 P0000 T10831100
KARB 131453Z 16007KT 3/4SM -SN BR VV017 M08/M10 A2975 RMK AO2 SLP088 P0001 60001 T10831100 56019
KARB 131445Z 16008KT 1SM -SN BR VV020 M08/M11 A2975 RMK AO2 P0000 T10831106
KARB 131428Z 15005KT 1 3/4SM -SN BR OVC022 M08/M10 A2975 RMK AO2 P0000 T10831100
KARB 131411Z 16006KT 1SM -SN BR VV017 M08/M10 A2976 RMK AO2 P0000 T10831100
KARB 131402Z 16008KT 3/4SM -SN BR VV020 M08/M10 A2976 RMK AO2 P0000 T10831100
KARB 131353Z 15008KT 1SM -SN BR VV020 M08/M10 A2976 RMK AO2 SNB09 SLP093 P0000 T10831100
KARB 131346Z 16006KT 1 3/4SM -SN BR OVC025 M08/M10 A2977 RMK AO2 SNB09 P0000 T10831100
KARB 131324Z 17006KT 1 1/4SM -SN BR OVC027 M08/M11 A2978 RMK AO2 SNB09 P0000 T10831106
KARB 131318Z 16006KT 1 3/4SM -SN BR OVC032 M08/M11 A2978 RMK AO2 SNB09 P0000 T10831106
KARB 131253Z AUTO 16006KT 10SM OVC065 M08/M11 A2979 RMK AO2 SLP101 T10831111
KARB 131153Z AUTO 18006KT 10SM OVC031 M09/M12 A2981 RMK AO2 SLP108 T10891122 11089 21128 58011
KARB 131053Z AUTO 19005KT 10SM OVC038 M09/M13 A2982 RMK AO2 SLP113 T10891128
KARB 130953Z AUTO 21005KT 10SM OVC044 M09/M13 A2983 RMK AO2 SLP115 T10941133
KARB 130853Z AUTO 22005KT 10SM OVC044 M11/M14 A2984 RMK AO2 SLP119 T11061144 56005
KARB 130753Z AUTO 27003KT 10SM OVC040 M10/M14 A2984 RMK AO2 SLP120 T11001144
KARB 130653Z AUTO 25007KT 10SM OVC043 M10/M14 A2985 RMK AO2 SLP122 T11001144
KARB 130553Z AUTO 26005KT 10SM CLR M12/M16 A2985 RMK AO2 SLP125 60000 T11221161 11089 21133 58009
KARB 130453Z AUTO 25006KT 10SM FEW048 M12/M16 A2987 RMK AO2 SLP130 T11171161 410111117
KARB 130353Z AUTO 27010KT 10SM BKN048 M09/M15 A2988 RMK AO2 SLP132 T10891150
KARB 130253Z AUTO 25008KT 10SM OVC050 M09/M13 A2988 RMK AO2 SNE01 SLP134 P0000 60000 T10891133 58001
KARB 130153Z AUTO 28006KT 9SM -SN OVC050 M09/M13 A2988 RMK AO2 SNB31 SLP134 P0000 T10891128
KARB 130053Z AUTO 27005KT 10SM BKN055 M10/M13 A2989 RMK AO2 SLP138 T11001133
KARB 122353Z AUTO 28007KT 10SM BKN060 M09/M14 A2989 RMK AO2 SLP135 60000 T10891139 11067 21094 51012
KARB 122253Z 28010KT 10SM OVC060 M09/M13 A2988 RMK AO2 SNE24 SLP131 P0000 T10891128
KARB 122231Z 28009KT 10SM SCT034 BKN060 M09/M13 A2988 RMK AO2 SNE24 P0000 T10891128
KARB 122223Z 28009KT 7SM -SN BKN029 BKN060 M09/M13 A2988 RMK AO2 P0000 T10941128
KARB 122153Z 28011G20KT 4SM -SN BKN033 BKN040 M09/M14 A2987 RMK AO2 SNB45 SLP126 P0000 T10891139
KARB 122053Z 27010KT 10SM BKN065 M08/M16 A2985 RMK AO2 SLP121 T10781156 53002
KARB 121953Z 30015KT 10SM BKN043 OVC055 M08/M16 A2985 RMK AO2 PK WND 28026/1908 SLP118 T10781161
KARB 121853Z 28018G28KT 9SM FEW060 M07/M16 A2984 RMK AO2 PK WND 28028/1850 SLP117 T10721156
KARB 121753Z 27015G21KT 9SM SCT047 M07/M16 A2984 RMK AO2 PK WND 27029/1714 SLP118 T10721156 11067 21078 58005
KARB 121653Z 30016G23KT 10SM BKN045 M07/M15 A2985 RMK AO2 SLP120 T10671150
KARB 121553Z 30015G20KT 10SM SCT042 M07/M14 A2986 RMK AO2 SLP123 T10671144
KARB 121453Z 29014G23KT 10SM SCT032 M07/M14 A2986 RMK AO2 SLP123 T10721139 51021